createdAt,value
2019-05-22T00:00:30.061Z,13.95
2019-05-22T00:04:36.520Z,17.57
2019-05-22T00:08:40.440Z,13.07
2019-05-22T00:12:46.541Z,18.20
2019-05-22T00:16:49.265Z,19.63
2019-05-22T00:20:53.160Z,21.20
2019-05-22T00:24:56.696Z,20.83
2019-05-22T00:28:59.407Z,20.50
2019-05-22T00:33:03.236Z,23.70
2019-05-22T00:37:06.000Z,26.73
2019-05-22T00:41:10.068Z,25.10
2019-05-22T00:45:15.070Z,30.45
2019-05-22T00:49:18.270Z,30.95
2019-05-22T00:53:26.423Z,30.82
2019-05-22T00:57:37.188Z,31.47
2019-05-22T01:01:55.840Z,28.63
2019-05-22T01:05:58.699Z,27.53
2019-05-22T01:10:03.711Z,30.03
2019-05-22T01:14:07.588Z,28.90
2019-05-22T01:18:12.273Z,29.43
2019-05-22T01:22:15.362Z,26.77
2019-05-22T01:26:19.933Z,20.92
2019-05-22T01:30:38.343Z,24.57
2019-05-22T01:34:40.414Z,27.40
2019-05-22T01:38:42.405Z,20.93
2019-05-22T01:42:46.358Z,24.63
2019-05-22T01:46:50.540Z,21.43
2019-05-22T01:50:56.445Z,21.73
2019-05-22T01:54:58.452Z,27.70
2019-05-22T01:59:02.373Z,24.63
2019-05-22T02:03:06.318Z,22.83
2019-05-22T02:07:09.708Z,24.77
2019-05-22T02:11:16.420Z,24.57
2019-05-22T02:15:19.133Z,24.18
2019-05-22T02:19:22.606Z,24.32
2019-05-22T02:23:25.273Z,24.40
2019-05-22T02:27:28.002Z,22.13
2019-05-22T02:31:32.772Z,20.93
2019-05-22T02:35:35.124Z,19.70
2019-05-22T02:39:37.905Z,19.63
2019-05-22T02:43:39.828Z,17.80
2019-05-22T02:47:43.068Z,19.63
2019-05-22T02:51:46.457Z,18.33
2019-05-22T02:55:49.575Z,18.60
2019-05-22T02:59:52.332Z,19.77
2019-05-22T03:03:55.111Z,22.77
2019-05-22T03:07:57.646Z,20.77
2019-05-22T03:12:06.166Z,22.80
2019-05-22T03:16:09.967Z,24.70
2019-05-22T03:20:18.790Z,25.50
2019-05-22T03:24:21.091Z,23.00
2019-05-22T03:28:23.581Z,23.73
2019-05-22T03:32:26.174Z,23.20
2019-05-22T03:36:28.419Z,21.47
2019-05-22T03:40:32.038Z,23.73
2019-05-22T03:44:34.198Z,24.97
2019-05-22T03:48:37.921Z,24.70
2019-05-22T03:52:40.552Z,24.87
2019-05-22T03:56:43.047Z,22.63
2019-05-22T04:00:46.496Z,21.17
2019-05-22T04:04:48.629Z,19.70
2019-05-22T04:08:54.636Z,26.90
2019-05-22T04:12:56.770Z,21.03
2019-05-22T04:16:59.726Z,22.33
2019-05-22T04:21:03.566Z,22.17
2019-05-22T04:25:09.339Z,19.63
2019-05-22T04:29:11.805Z,20.60
2019-05-22T04:33:14.739Z,21.37
2019-05-22T04:37:17.482Z,22.83
2019-05-22T04:41:19.785Z,21.68
2019-05-22T04:45:23.202Z,25.62
2019-05-22T04:49:26.075Z,29.57
2019-05-22T04:53:29.202Z,25.37
2019-05-22T04:57:31.263Z,27.47
2019-05-22T05:01:33.510Z,29.00
2019-05-22T05:05:41.739Z,32.23
2019-05-22T05:09:44.663Z,34.33
2019-05-22T05:13:46.751Z,33.57
2019-05-22T05:17:48.827Z,33.33
2019-05-22T05:21:51.326Z,34.47
2019-05-22T05:25:53.606Z,37.57
2019-05-22T05:29:55.520Z,33.67
2019-05-22T05:34:17.994Z,37.10
2019-05-22T05:38:37.187Z,34.63
2019-05-22T05:42:40.021Z,33.37
2019-05-22T05:46:42.096Z,39.40
2019-05-22T05:51:06.308Z,34.30
2019-05-22T05:55:08.586Z,33.87
2019-05-22T05:59:12.351Z,35.93
2019-05-22T06:03:38.653Z,37.40
2019-05-22T06:07:41.415Z,33.37
2019-05-22T06:11:49.461Z,32.73
2019-05-22T06:16:09.096Z,35.73
2019-05-22T06:20:17.035Z,33.40
2019-05-22T06:24:38.005Z,30.40
2019-05-22T06:28:42.407Z,31.83
2019-05-22T06:33:10.377Z,25.53
2019-05-22T06:37:37.611Z,28.73
2019-05-22T06:41:40.980Z,25.10
2019-05-22T06:45:42.946Z,25.13
2019-05-22T06:49:49.134Z,25.77
2019-05-22T06:53:52.794Z,23.17
2019-05-22T06:57:55.058Z,27.90
2019-05-22T07:02:01.685Z,25.13
2019-05-22T07:06:03.248Z,24.07
2019-05-22T07:10:06.951Z,25.80
2019-05-22T07:14:11.366Z,23.17
2019-05-22T07:18:16.291Z,19.10
2019-05-22T07:22:18.831Z,27.57
2019-05-22T07:26:20.829Z,23.83
2019-05-22T07:30:23.443Z,21.02
2019-05-22T07:34:26.043Z,24.47
2019-05-22T07:38:28.197Z,23.37
2019-05-22T07:42:30.371Z,22.13
2019-05-22T07:46:32.758Z,20.13
2019-05-22T07:50:36.751Z,22.57
2019-05-22T07:54:40.516Z,24.87
2019-05-22T07:58:44.543Z,18.80
2019-05-22T08:02:50.285Z,20.60
2019-05-22T08:06:52.514Z,24.57
2019-05-22T08:10:56.415Z,20.03
2019-05-22T08:14:59.410Z,23.30
2019-05-22T08:19:01.676Z,24.27
2019-05-22T08:23:05.386Z,26.20
2019-05-22T08:27:09.113Z,30.90
2019-05-22T08:31:13.194Z,25.47
2019-05-22T08:35:15.886Z,22.13
2019-05-22T08:39:18.673Z,22.27
2019-05-22T08:43:21.331Z,23.73
2019-05-22T08:47:23.944Z,24.30
2019-05-22T08:51:25.858Z,24.33
2019-05-22T08:55:27.861Z,24.03
2019-05-22T08:59:29.952Z,25.20
2019-05-22T09:03:32.309Z,24.60
2019-05-22T09:07:35.144Z,25.00
2019-05-22T09:11:37.222Z,23.87
2019-05-22T09:15:40.305Z,23.93
2019-05-22T09:19:42.285Z,22.70
2019-05-22T09:23:45.690Z,20.77
2019-05-22T09:27:48.215Z,20.47
2019-05-22T09:31:50.234Z,19.60
2019-05-22T09:35:52.476Z,19.60
2019-05-22T09:39:54.452Z,21.37
2019-05-22T09:43:56.542Z,18.40
2019-05-22T09:47:59.489Z,16.70
2019-05-22T09:52:02.492Z,17.87
2019-05-22T09:56:05.863Z,15.43
2019-05-22T10:00:13.155Z,17.13
2019-05-22T10:04:15.509Z,16.40
2019-05-22T10:08:18.479Z,15.05
2019-05-22T10:12:20.820Z,16.20
2019-05-22T10:16:23.951Z,16.90
2019-05-22T10:20:26.291Z,17.07
2019-05-22T10:24:28.918Z,16.43
2019-05-22T10:28:30.914Z,16.37
2019-05-22T10:32:32.893Z,17.60
2019-05-22T10:36:35.162Z,18.10
2019-05-22T10:40:37.139Z,16.37
2019-05-22T10:44:39.069Z,14.90
2019-05-22T10:48:40.985Z,14.43
2019-05-22T10:52:43.432Z,13.63
2019-05-22T10:56:45.518Z,12.83
2019-05-22T11:00:47.611Z,16.03
2019-05-22T11:04:49.668Z,17.27
2019-05-22T11:08:51.622Z,14.20
2019-05-22T11:12:54.207Z,14.63
2019-05-22T11:17:01.294Z,19.57
2019-05-22T11:21:02.327Z,17.53
2019-05-22T11:25:08.894Z,17.50
2019-05-22T11:29:11.258Z,18.37
2019-05-22T11:33:13.421Z,18.42
2019-05-22T11:37:15.954Z,20.13
2019-05-22T11:41:19.170Z,20.05
2019-05-22T11:45:22.669Z,23.07
2019-05-22T11:49:24.954Z,24.53
2019-05-22T11:53:27.154Z,20.87
2019-05-22T11:57:30.382Z,19.30
2019-05-22T12:01:32.320Z,19.90
2019-05-22T12:05:34.757Z,21.40
2019-05-22T12:09:37.119Z,22.10
2019-05-22T12:13:39.273Z,19.77
2019-05-22T12:17:41.694Z,22.10
2019-05-22T12:21:44.744Z,18.50
2019-05-22T12:25:46.669Z,20.30
2019-05-22T12:29:49.770Z,22.43
2019-05-22T12:33:52.536Z,23.20
2019-05-22T12:37:54.768Z,21.97
2019-05-22T12:41:57.586Z,19.43
2019-05-22T12:46:00.559Z,19.10
2019-05-22T12:50:04.795Z,17.33
2019-05-22T12:54:08.761Z,19.70
2019-05-22T12:58:12.197Z,17.27
2019-05-22T13:02:16.441Z,18.05
2019-05-22T13:06:18.420Z,12.18
2019-05-22T13:10:21.418Z,14.87
2019-05-22T13:14:23.703Z,13.38
2019-05-22T13:18:26.940Z,14.47
2019-05-22T13:22:30.820Z,14.03
2019-05-22T13:26:36.707Z,10.97
2019-05-22T13:30:42.849Z,11.43
2019-05-22T13:34:45.728Z,11.97
2019-05-22T13:38:48.534Z,10.37
2019-05-22T13:42:50.565Z,10.93
2019-05-22T13:46:53.389Z,10.87
2019-05-22T13:50:58.087Z,10.10
2019-05-22T13:55:00.339Z,9.33
2019-05-22T13:59:03.274Z,8.20
2019-05-22T14:03:05.855Z,11.07
2019-05-22T14:07:08.964Z,8.65
2019-05-22T14:11:12.491Z,8.70
2019-05-22T14:15:15.398Z,6.40
2019-05-22T14:19:17.560Z,9.27
2019-05-22T14:23:21.353Z,9.75
2019-05-22T14:27:23.436Z,10.53
2019-05-22T14:31:25.798Z,7.33
2019-05-22T14:35:47.078Z,10.33
2019-05-22T14:39:35.172Z,7.40
2019-05-22T14:43:37.525Z,7.23
2019-05-22T14:47:39.737Z,8.10
2019-05-22T14:51:42.530Z,5.40
2019-05-22T14:55:46.389Z,10.93
2019-05-22T14:59:48.289Z,4.87
2019-05-22T15:03:52.046Z,6.10
2019-05-22T15:07:53.948Z,5.00
2019-05-22T15:11:56.104Z,4.80
2019-05-22T15:15:58.266Z,5.80
2019-05-22T15:20:00.168Z,5.23
2019-05-22T15:24:03.543Z,4.03
2019-05-22T15:28:07.250Z,6.27
2019-05-22T15:32:09.938Z,5.50
2019-05-22T15:36:13.648Z,5.03
2019-05-22T15:40:19.267Z,4.50
2019-05-22T15:44:23.318Z,6.33
2019-05-22T15:48:29.568Z,5.08
2019-05-22T15:52:35.118Z,4.07
2019-05-22T15:56:40.081Z,6.90
2019-05-22T16:00:46.098Z,6.00
2019-05-22T16:04:48.754Z,5.20
2019-05-22T16:08:52.815Z,6.22
2019-05-22T16:12:56.741Z,5.00
2019-05-22T16:16:59.477Z,7.17
2019-05-22T16:21:04.962Z,6.87
2019-05-22T16:25:09.425Z,6.70
2019-05-22T16:29:12.812Z,5.37
2019-05-22T16:33:16.106Z,5.92
2019-05-22T16:37:18.723Z,5.63
2019-05-22T16:41:22.522Z,7.60
2019-05-22T16:45:26.765Z,5.15
2019-05-22T16:49:30.072Z,4.30
2019-05-22T16:53:32.819Z,5.03
2019-05-22T16:57:36.042Z,6.60
2019-05-22T17:01:56.809Z,5.93
2019-05-22T17:05:43.510Z,6.93
2019-05-22T17:09:47.426Z,4.50
2019-05-22T17:13:50.956Z,7.60
2019-05-22T17:17:53.336Z,10.33
2019-05-22T17:21:55.691Z,6.20
2019-05-22T17:25:58.732Z,5.80
2019-05-22T17:30:01.590Z,6.33
2019-05-22T17:34:07.740Z,7.90
2019-05-22T17:38:10.941Z,6.63
2019-05-22T17:42:20.361Z,7.65
2019-05-22T17:46:24.029Z,5.40
2019-05-22T17:50:28.330Z,6.85
2019-05-22T17:54:30.303Z,5.83
2019-05-22T17:58:32.283Z,7.93
2019-05-22T18:02:36.230Z,7.23
2019-05-22T18:06:39.021Z,6.87
2019-05-22T18:10:44.311Z,8.77
2019-05-22T18:14:48.131Z,9.00
2019-05-22T18:18:50.205Z,10.27
2019-05-22T18:22:52.759Z,7.53
2019-05-22T18:26:54.747Z,8.10
2019-05-22T18:30:56.987Z,6.17
2019-05-22T18:35:00.144Z,6.10
2019-05-22T18:39:02.110Z,7.43
2019-05-22T18:43:04.774Z,7.40
2019-05-22T18:47:08.327Z,7.90
2019-05-22T18:51:11.050Z,7.20
2019-05-22T18:55:13.097Z,4.65
2019-05-22T18:59:15.339Z,5.20
2019-05-22T19:03:17.311Z,7.95
2019-05-22T19:07:19.291Z,6.03
2019-05-22T19:11:21.215Z,4.75
2019-05-22T19:15:24.869Z,6.97
2019-05-22T19:19:28.493Z,6.77
2019-05-22T19:23:30.538Z,4.03
2019-05-22T19:27:32.534Z,8.27
2019-05-22T19:31:34.607Z,3.93
2019-05-22T19:35:36.597Z,2.70
2019-05-22T19:39:38.768Z,7.10
2019-05-22T19:43:40.739Z,4.03
2019-05-22T19:47:49.791Z,13.87
2019-05-22T19:51:52.510Z,4.08
2019-05-22T19:55:54.689Z,6.27
2019-05-22T19:59:58.896Z,4.40
2019-05-22T20:04:01.388Z,3.30
2019-05-22T20:08:04.669Z,5.07
2019-05-22T20:12:07.388Z,3.77
2019-05-22T20:16:10.489Z,7.73
2019-05-22T20:20:17.482Z,4.28
2019-05-22T20:24:19.555Z,6.05
2019-05-22T20:28:22.094Z,5.60
2019-05-22T20:32:23.990Z,3.08
2019-05-22T20:36:26.197Z,4.50
2019-05-22T20:40:28.701Z,3.30
2019-05-22T20:44:30.928Z,2.33
2019-05-22T20:48:33.210Z,3.07
2019-05-22T20:52:35.545Z,4.47
2019-05-22T20:56:39.820Z,3.10
2019-05-22T21:00:43.469Z,6.13
2019-05-22T21:04:48.163Z,4.03
2019-05-22T21:08:50.894Z,3.87
2019-05-22T21:12:54.411Z,3.83
2019-05-22T21:16:56.709Z,5.03
2019-05-22T21:20:58.865Z,3.07
2019-05-22T21:25:01.938Z,2.40
2019-05-22T21:29:04.465Z,5.40
2019-05-22T21:33:07.125Z,5.73
2019-05-22T21:37:09.734Z,4.87
2019-05-22T21:41:12.165Z,5.93
2019-05-22T21:45:14.888Z,4.72
2019-05-22T21:49:19.081Z,2.53
2019-05-22T21:53:21.304Z,10.10
2019-05-22T21:57:23.456Z,5.30
2019-05-22T22:01:27.669Z,3.80
2019-05-22T22:05:31.134Z,4.30
2019-05-22T22:09:33.095Z,4.40
2019-05-22T22:13:39.603Z,4.17
2019-05-22T22:17:43.217Z,3.70
2019-05-22T22:21:45.967Z,6.10
2019-05-22T22:25:49.228Z,5.70
2019-05-22T22:29:51.926Z,3.10
2019-05-22T22:33:59.056Z,10.67
2019-05-22T22:38:03.419Z,7.60
2019-05-22T22:42:07.033Z,4.27
2019-05-22T22:46:23.706Z,4.67
2019-05-22T22:50:26.220Z,5.85
2019-05-22T22:54:29.211Z,5.17
2019-05-22T22:58:32.265Z,3.47
2019-05-22T23:02:35.356Z,3.60
2019-05-22T23:06:38.740Z,4.07
2019-05-22T23:10:42.258Z,7.10
2019-05-22T23:14:52.594Z,4.97
2019-05-22T23:19:15.773Z,4.93
2019-05-22T23:23:17.416Z,3.90
2019-05-22T23:27:21.074Z,5.45
2019-05-22T23:31:23.814Z,5.28
2019-05-22T23:35:27.564Z,4.47
2019-05-22T23:39:32.505Z,3.23
2019-05-22T23:43:34.689Z,4.40
2019-05-22T23:47:51.057Z,4.77
2019-05-22T23:51:53.165Z,5.00
2019-05-22T23:55:56.767Z,3.77
